Red Rock, Nevada
Current Conditions -  °F | °C
As of 3:15 AM on Friday 28 Nov 2014 (Local Time) from KRTS Reporting Station
Clear Clear  
Wind Chill: 45°   Ceiling: Unl
Heat Index: 48°   Visibility: 10mi
Dew Point: -4°   Wind: 7mph
Humidity: 11%   Direction: 270°W
Pressure: 30.06"   Gusts: NA
Location:  39.7378°N, 119.889°W
Report Text: KRTS 281115Z AUTO 27006KT 10SM CLR 09/M20 A3006 RMK AO2
Loading
Personal Weather Stations






























Interactive Weather Map New forecast layout! Learn more

10-Day Weather Forecast

Advertisements
Track Severe Weather on mobile